sensor_id;sensor_type;location;lat;lon;timestamp;temperature;humidity
21184;DHT22;18176;49.502;11.754;2023-10-09T00:01:37;10.20;99.90
21184;DHT22;18176;49.502;11.754;2023-10-09T00:05:40;10.20;99.90
21184;DHT22;18176;49.502;11.754;2023-10-09T00:09:43;10.20;99.90
21184;DHT22;18176;49.502;11.754;2023-10-09T00:13:50;10.20;99.90
21184;DHT22;18176;49.502;11.754;2023-10-09T00:17:54;10.20;99.90
21184;DHT22;18176;49.502;11.754;2023-10-09T00:21:56;10.20;99.90
21184;DHT22;18176;49.502;11.754;2023-10-09T00:26:01;10.10;99.90
21184;DHT22;18176;49.502;11.754;2023-10-09T00:30:21;10.10;99.90
21184;DHT22;18176;49.502;11.754;2023-10-09T00:34:27;10.10;99.90
21184;DHT22;18176;49.502;11.754;2023-10-09T00:38:37;10.10;99.90
21184;DHT22;18176;49.502;11.754;2023-10-09T00:42:42;10.10;99.90
21184;DHT22;18176;49.502;11.754;2023-10-09T00:46:47;10.20;99.90
21184;DHT22;18176;49.502;11.754;2023-10-09T00:50:48;10.20;99.90
21184;DHT22;18176;49.502;11.754;2023-10-09T00:54:50;10.30;99.90
21184;DHT22;18176;49.502;11.754;2023-10-09T00:58:51;10.30;99.90
21184;DHT22;18176;49.502;11.754;2023-10-09T01:03:00;10.30;99.90
21184;DHT22;18176;49.502;11.754;2023-10-09T01:07:17;10.40;99.90
21184;DHT22;18176;49.502;11.754;2023-10-09T01:11:23;10.40;99.90
21184;DHT22;18176;49.502;11.754;2023-10-09T01:15:26;10.40;99.90
21184;DHT22;18176;49.502;11.754;2023-10-09T01:19:43;10.30;99.90
21184;DHT22;18176;49.502;11.754;2023-10-09T01:23:47;10.40;99.90
21184;DHT22;18176;49.502;11.754;2023-10-09T01:28:02;10.40;99.90
21184;DHT22;18176;49.502;11.754;2023-10-09T01:32:03;10.40;99.90
21184;DHT22;18176;49.502;11.754;2023-10-09T01:36:03;10.50;99.90
21184;DHT22;18176;49.502;11.754;2023-10-09T01:40:10;10.60;99.90
21184;DHT22;18176;49.502;11.754;2023-10-09T01:44:22;10.60;99.90
21184;DHT22;18176;49.502;11.754;2023-10-09T01:48:25;10.60;99.90
21184;DHT22;18176;49.502;11.754;2023-10-09T01:52:29;10.60;99.90
21184;DHT22;18176;49.502;11.754;2023-10-09T01:56:34;10.60;99.90
21184;DHT22;18176;49.502;11.754;2023-10-09T02:00:37;10.60;99.90
21184;DHT22;18176;49.502;11.754;2023-10-09T02:04:41;10.60;99.90
21184;DHT22;18176;49.502;11.754;2023-10-09T02:08:41;10.60;99.90
21184;DHT22;18176;49.502;11.754;2023-10-09T02:12:49;10.60;99.90
21184;DHT22;18176;49.502;11.754;2023-10-09T02:16:56;10.60;99.90
21184;DHT22;18176;49.502;11.754;2023-10-09T02:21:07;10.60;99.90
21184;DHT22;18176;49.502;11.754;2023-10-09T02:25:25;10.60;99.90
21184;DHT22;18176;49.502;11.754;2023-10-09T02:29:33;10.60;99.90
21184;DHT22;18176;49.502;11.754;2023-10-09T02:33:40;10.60;99.90
21184;DHT22;18176;49.502;11.754;2023-10-09T02:37:41;10.60;99.90
21184;DHT22;18176;49.502;11.754;2023-10-09T02:41:43;10.60;99.90
21184;DHT22;18176;49.502;11.754;2023-10-09T02:45:49;10.60;99.90
21184;DHT22;18176;49.502;11.754;2023-10-09T02:49:50;10.60;99.90
21184;DHT22;18176;49.502;11.754;2023-10-09T02:53:59;10.60;99.90
21184;DHT22;18176;49.502;11.754;2023-10-09T02:58:05;10.60;99.90
21184;DHT22;18176;49.502;11.754;2023-10-09T03:02:20;10.60;99.90
21184;DHT22;18176;49.502;11.754;2023-10-09T03:06:22;10.60;99.90
21184;DHT22;18176;49.502;11.754;2023-10-09T03:10:26;10.60;99.90
21184;DHT22;18176;49.502;11.754;2023-10-09T03:14:26;10.60;99.90
21184;DHT22;18176;49.502;11.754;2023-10-09T03:18:30;10.60;99.90
21184;DHT22;18176;49.502;11.754;2023-10-09T03:22:30;10.50;99.90
21184;DHT22;18176;49.502;11.754;2023-10-09T03:26:32;10.50;99.90
21184;DHT22;18176;49.502;11.754;2023-10-09T03:30:32;10.40;99.90
21184;DHT22;18176;49.502;11.754;2023-10-09T03:34:37;10.30;99.90
21184;DHT22;18176;49.502;11.754;2023-10-09T03:38:37;10.20;99.90
21184;DHT22;18176;49.502;11.754;2023-10-09T03:42:40;10.10;99.90
21184;DHT22;18176;49.502;11.754;2023-10-09T03:46:43;10.00;99.90
21184;DHT22;18176;49.502;11.754;2023-10-09T03:50:50;9.90;99.90
21184;DHT22;18176;49.502;11.754;2023-10-09T03:55:06;9.80;99.90
21184;DHT22;18176;49.502;11.754;2023-10-09T03:59:12;9.80;99.90
21184;DHT22;18176;49.502;11.754;2023-10-09T04:03:13;9.70;99.90
21184;DHT22;18176;49.502;11.754;2023-10-09T04:07:17;9.60;99.90
21184;DHT22;18176;49.502;11.754;2023-10-09T04:11:18;9.50;99.90
21184;DHT22;18176;49.502;11.754;2023-10-09T04:15:20;9.50;99.90
21184;DHT22;18176;49.502;11.754;2023-10-09T04:19:20;9.40;99.90
21184;DHT22;18176;49.502;11.754;2023-10-09T04:23:23;9.40;99.90
21184;DHT22;18176;49.502;11.754;2023-10-09T04:27:32;9.30;99.90
21184;DHT22;18176;49.502;11.754;2023-10-09T04:31:33;9.20;99.90
21184;DHT22;18176;49.502;11.754;2023-10-09T04:35:34;9.10;99.90
21184;DHT22;18176;49.502;11.754;2023-10-09T04:39:40;9.10;99.90
21184;DHT22;18176;49.502;11.754;2023-10-09T04:43:47;9.10;99.90
21184;DHT22;18176;49.502;11.754;2023-10-09T04:47:48;9.10;99.90
21184;DHT22;18176;49.502;11.754;2023-10-09T04:52:04;9.10;99.90
21184;DHT22;18176;49.502;11.754;2023-10-09T04:56:18;9.10;99.90
21184;DHT22;18176;49.502;11.754;2023-10-09T05:00:21;9.20;99.90
21184;DHT22;18176;49.502;11.754;2023-10-09T05:04:42;9.20;99.90
21184;DHT22;18176;49.502;11.754;2023-10-09T05:08:45;9.20;99.90
21184;DHT22;18176;49.502;11.754;2023-10-09T05:12:48;9.20;99.90
21184;DHT22;18176;49.502;11.754;2023-10-09T05:16:54;9.20;99.90
21184;DHT22;18176;49.502;11.754;2023-10-09T05:20:58;9.20;99.90
21184;DHT22;18176;49.502;11.754;2023-10-09T05:25:18;9.10;99.90
21184;DHT22;18176;49.502;11.754;2023-10-09T05:29:41;9.10;99.90
21184;DHT22;18176;49.502;11.754;2023-10-09T05:33:56;9.00;99.90
21184;DHT22;18176;49.502;11.754;2023-10-09T05:37:58;8.90;99.90
21184;DHT22;18176;49.502;11.754;2023-10-09T05:42:01;8.80;99.90
21184;DHT22;18176;49.502;11.754;2023-10-09T05:46:12;8.80;99.90
21184;DHT22;18176;49.502;11.754;2023-10-09T05:50:13;8.70;99.90
21184;DHT22;18176;49.502;11.754;2023-10-09T05:54:26;8.70;99.90
21184;DHT22;18176;49.502;11.754;2023-10-09T05:58:41;8.80;99.90
21184;DHT22;18176;49.502;11.754;2023-10-09T06:03:08;8.80;99.90
21184;DHT22;18176;49.502;11.754;2023-10-09T06:07:45;8.80;99.90
21184;DHT22;18176;49.502;11.754;2023-10-09T06:12:01;8.90;99.90
21184;DHT22;18176;49.502;11.754;2023-10-09T06:16:26;9.10;99.90
21184;DHT22;18176;49.502;11.754;2023-10-09T06:20:59;9.30;99.90
21184;DHT22;18176;49.502;11.754;2023-10-09T06:25:16;9.50;99.90
21184;DHT22;18176;49.502;11.754;2023-10-09T06:29:24;10.00;99.90
21184;DHT22;18176;49.502;11.754;2023-10-09T06:33:33;10.60;99.90
21184;DHT22;18176;49.502;11.754;2023-10-09T06:37:57;11.10;99.90
21184;DHT22;18176;49.502;11.754;2023-10-09T06:42:30;11.40;99.90
21184;DHT22;18176;49.502;11.754;2023-10-09T06:46:31;11.70;99.90
21184;DHT22;18176;49.502;11.754;2023-10-09T06:50:49;11.80;99.90
21184;DHT22;18176;49.502;11.754;2023-10-09T06:55:05;12.00;99.90
21184;DHT22;18176;49.502;11.754;2023-10-09T06:59:16;12.30;99.90
21184;DHT22;18176;49.502;11.754;2023-10-09T07:03:18;12.60;99.90
21184;DHT22;18176;49.502;11.754;2023-10-09T07:07:27;13.00;99.90
21184;DHT22;18176;49.502;11.754;2023-10-09T07:11:35;13.20;99.90
21184;DHT22;18176;49.502;11.754;2023-10-09T07:15:48;13.40;99.90
21184;DHT22;18176;49.502;11.754;2023-10-09T07:20:01;13.70;99.90
21184;DHT22;18176;49.502;11.754;2023-10-09T07:24:13;13.90;99.90
21184;DHT22;18176;49.502;11.754;2023-10-09T07:28:17;14.20;99.90
21184;DHT22;18176;49.502;11.754;2023-10-09T07:32:34;14.40;99.90
21184;DHT22;18176;49.502;11.754;2023-10-09T07:36:40;14.60;99.90
21184;DHT22;18176;49.502;11.754;2023-10-09T07:40:46;15.00;99.90
21184;DHT22;18176;49.502;11.754;2023-10-09T07:45:00;15.20;99.90
21184;DHT22;18176;49.502;11.754;2023-10-09T07:49:10;15.30;99.90
21184;DHT22;18176;49.502;11.754;2023-10-09T07:53:09;15.40;99.90
21184;DHT22;18176;49.502;11.754;2023-10-09T07:57:24;15.90;99.90
21184;DHT22;18176;49.502;11.754;2023-10-09T08:01:40;16.40;99.90
21184;DHT22;18176;49.502;11.754;2023-10-09T08:05:50;16.80;99.90
21184;DHT22;18176;49.502;11.754;2023-10-09T08:10:05;17.20;99.90
21184;DHT22;18176;49.502;11.754;2023-10-09T08:14:20;17.70;99.90
21184;DHT22;18176;49.502;11.754;2023-10-09T08:18:43;17.90;99.90
21184;DHT22;18176;49.502;11.754;2023-10-09T08:22:48;18.40;99.90
21184;DHT22;18176;49.502;11.754;2023-10-09T08:26:53;18.10;99.90
21184;DHT22;18176;49.502;11.754;2023-10-09T08:31:16;17.60;99.90
21184;DHT22;18176;49.502;11.754;2023-10-09T08:35:36;17.30;99.90
21184;DHT22;18176;49.502;11.754;2023-10-09T08:39:45;17.10;99.90
21184;DHT22;18176;49.502;11.754;2023-10-09T08:43:50;17.00;99.90
21184;DHT22;18176;49.502;11.754;2023-10-09T08:47:53;16.80;99.90
21184;DHT22;18176;49.502;11.754;2023-10-09T08:51:59;16.60;99.90
21184;DHT22;18176;49.502;11.754;2023-10-09T08:56:01;16.50;99.90
21184;DHT22;18176;49.502;11.754;2023-10-09T09:00:06;16.60;99.90
21184;DHT22;18176;49.502;11.754;2023-10-09T09:04:09;16.80;99.90
21184;DHT22;18176;49.502;11.754;2023-10-09T09:08:24;17.00;99.90
21184;DHT22;18176;49.502;11.754;2023-10-09T09:12:25;17.10;99.90
21184;DHT22;18176;49.502;11.754;2023-10-09T09:16:35;17.20;99.90
21184;DHT22;18176;49.502;11.754;2023-10-09T09:20:45;17.20;99.90
21184;DHT22;18176;49.502;11.754;2023-10-09T09:25:00;17.10;99.90
21184;DHT22;18176;49.502;11.754;2023-10-09T09:29:06;16.70;99.90
21184;DHT22;18176;49.502;11.754;2023-10-09T09:33:18;16.40;99.90
21184;DHT22;18176;49.502;11.754;2023-10-09T09:37:25;16.40;99.90
21184;DHT22;18176;49.502;11.754;2023-10-09T09:41:33;16.50;99.90
21184;DHT22;18176;49.502;11.754;2023-10-09T09:45:38;16.50;99.90
21184;DHT22;18176;49.502;11.754;2023-10-09T09:49:45;16.60;99.90
21184;DHT22;18176;49.502;11.754;2023-10-09T09:53:46;16.50;99.90
21184;DHT22;18176;49.502;11.754;2023-10-09T09:57:51;16.50;99.90
21184;DHT22;18176;49.502;11.754;2023-10-09T10:01:54;16.30;99.90
21184;DHT22;18176;49.502;11.754;2023-10-09T10:06:05;16.00;99.90
21184;DHT22;18176;49.502;11.754;2023-10-09T10:10:33;15.70;99.90
21184;DHT22;18176;49.502;11.754;2023-10-09T10:14:57;15.50;99.90
21184;DHT22;18176;49.502;11.754;2023-10-09T10:19:06;15.50;99.90
21184;DHT22;18176;49.502;11.754;2023-10-09T10:23:21;15.40;99.90
21184;DHT22;18176;49.502;11.754;2023-10-09T10:27:25;15.40;99.90
21184;DHT22;18176;49.502;11.754;2023-10-09T10:31:59;15.40;99.90
21184;DHT22;18176;49.502;11.754;2023-10-09T10:36:04;15.40;99.90
21184;DHT22;18176;49.502;11.754;2023-10-09T10:40:07;15.40;99.90
21184;DHT22;18176;49.502;11.754;2023-10-09T10:44:10;15.60;99.90
21184;DHT22;18176;49.502;11.754;2023-10-09T10:48:34;15.70;99.90
21184;DHT22;18176;49.502;11.754;2023-10-09T10:52:37;15.80;99.90
21184;DHT22;18176;49.502;11.754;2023-10-09T10:56:42;15.80;99.90
21184;DHT22;18176;49.502;11.754;2023-10-09T11:00:52;15.60;99.90
21184;DHT22;18176;49.502;11.754;2023-10-09T11:05:09;15.50;99.90
21184;DHT22;18176;49.502;11.754;2023-10-09T11:09:20;15.50;99.90
21184;DHT22;18176;49.502;11.754;2023-10-09T11:13:48;15.60;99.90
21184;DHT22;18176;49.502;11.754;2023-10-09T11:17:59;15.70;99.90
21184;DHT22;18176;49.502;11.754;2023-10-09T11:22:05;15.90;99.90
21184;DHT22;18176;49.502;11.754;2023-10-09T11:26:26;16.00;99.90
21184;DHT22;18176;49.502;11.754;2023-10-09T11:30:31;16.40;99.90
21184;DHT22;18176;49.502;11.754;2023-10-09T11:34:35;17.10;99.90
21184;DHT22;18176;49.502;11.754;2023-10-09T11:38:39;17.90;99.90
21184;DHT22;18176;49.502;11.754;2023-10-09T11:42:43;18.50;99.90
21184;DHT22;18176;49.502;11.754;2023-10-09T11:46:57;18.60;99.90
21184;DHT22;18176;49.502;11.754;2023-10-09T11:51:13;18.30;99.90
21184;DHT22;18176;49.502;11.754;2023-10-09T11:55:21;18.00;99.90
21184;DHT22;18176;49.502;11.754;2023-10-09T11:59:22;17.70;99.90
21184;DHT22;18176;49.502;11.754;2023-10-09T12:03:24;17.70;99.90
21184;DHT22;18176;49.502;11.754;2023-10-09T12:07:27;17.70;99.90
21184;DHT22;18176;49.502;11.754;2023-10-09T12:11:30;17.80;99.90
21184;DHT22;18176;49.502;11.754;2023-10-09T12:15:30;18.00;99.90
21184;DHT22;18176;49.502;11.754;2023-10-09T12:19:35;18.00;99.90
21184;DHT22;18176;49.502;11.754;2023-10-09T12:23:36;17.90;99.90
21184;DHT22;18176;49.502;11.754;2023-10-09T12:27:40;17.80;99.90
21184;DHT22;18176;49.502;11.754;2023-10-09T12:31:41;17.60;99.90
21184;DHT22;18176;49.502;11.754;2023-10-09T12:35:42;17.40;99.90
21184;DHT22;18176;49.502;11.754;2023-10-09T12:39:44;17.10;99.90
21184;DHT22;18176;49.502;11.754;2023-10-09T12:43:47;16.80;99.90
21184;DHT22;18176;49.502;11.754;2023-10-09T12:47:49;16.80;99.90
21184;DHT22;18176;49.502;11.754;2023-10-09T12:51:49;16.80;99.90
21184;DHT22;18176;49.502;11.754;2023-10-09T12:55:50;17.00;99.90
21184;DHT22;18176;49.502;11.754;2023-10-09T12:59:56;17.10;99.90
21184;DHT22;18176;49.502;11.754;2023-10-09T13:03:56;17.30;99.90
21184;DHT22;18176;49.502;11.754;2023-10-09T13:07:56;17.40;99.90
21184;DHT22;18176;49.502;11.754;2023-10-09T13:11:59;17.50;99.90
21184;DHT22;18176;49.502;11.754;2023-10-09T13:16:02;17.60;99.90
21184;DHT22;18176;49.502;11.754;2023-10-09T13:20:05;17.90;99.90
21184;DHT22;18176;49.502;11.754;2023-10-09T13:24:12;18.10;99.90
21184;DHT22;18176;49.502;11.754;2023-10-09T13:28:13;18.40;99.90
21184;DHT22;18176;49.502;11.754;2023-10-09T13:32:20;18.70;99.90
21184;DHT22;18176;49.502;11.754;2023-10-09T13:36:24;19.10;99.90
21184;DHT22;18176;49.502;11.754;2023-10-09T13:40:29;19.50;99.90
21184;DHT22;18176;49.502;11.754;2023-10-09T13:44:31;19.60;99.90
21184;DHT22;18176;49.502;11.754;2023-10-09T13:48:37;19.90;99.90
21184;DHT22;18176;49.502;11.754;2023-10-09T13:52:40;20.10;99.90
21184;DHT22;18176;49.502;11.754;2023-10-09T13:56:41;20.40;99.90
21184;DHT22;18176;49.502;11.754;2023-10-09T14:00:41;20.50;99.90
21184;DHT22;18176;49.502;11.754;2023-10-09T14:04:46;20.70;99.90
21184;DHT22;18176;49.502;11.754;2023-10-09T14:08:47;20.90;99.90
21184;DHT22;18176;49.502;11.754;2023-10-09T14:12:48;21.10;99.90
21184;DHT22;18176;49.502;11.754;2023-10-09T14:16:51;21.40;99.90
21184;DHT22;18176;49.502;11.754;2023-10-09T14:21:00;22.00;99.90
21184;DHT22;18176;49.502;11.754;2023-10-09T14:25:02;22.30;99.90
21184;DHT22;18176;49.502;11.754;2023-10-09T14:29:10;22.50;99.90
21184;DHT22;18176;49.502;11.754;2023-10-09T14:33:13;22.50;99.90
21184;DHT22;18176;49.502;11.754;2023-10-09T14:37:22;22.50;99.90
21184;DHT22;18176;49.502;11.754;2023-10-09T14:41:23;22.30;99.90
21184;DHT22;18176;49.502;11.754;2023-10-09T14:45:24;22.10;99.90
21184;DHT22;18176;49.502;11.754;2023-10-09T14:49:25;21.90;99.90
21184;DHT22;18176;49.502;11.754;2023-10-09T14:53:34;21.80;99.90
21184;DHT22;18176;49.502;11.754;2023-10-09T14:57:35;21.60;99.90
21184;DHT22;18176;49.502;11.754;2023-10-09T15:01:35;21.20;99.90
21184;DHT22;18176;49.502;11.754;2023-10-09T15:05:35;20.80;99.90
21184;DHT22;18176;49.502;11.754;2023-10-09T15:09:38;20.40;99.90
21184;DHT22;18176;49.502;11.754;2023-10-09T15:13:40;20.10;99.90
21184;DHT22;18176;49.502;11.754;2023-10-09T15:17:41;19.80;99.90
21184;DHT22;18176;49.502;11.754;2023-10-09T15:21:43;19.60;99.90
21184;DHT22;18176;49.502;11.754;2023-10-09T15:25:46;19.40;99.90
21184;DHT22;18176;49.502;11.754;2023-10-09T15:29:49;19.20;99.90
21184;DHT22;18176;49.502;11.754;2023-10-09T15:33:49;19.00;99.90
21184;DHT22;18176;49.502;11.754;2023-10-09T15:37:50;18.90;99.90
21184;DHT22;18176;49.502;11.754;2023-10-09T15:41:54;18.90;99.90
21184;DHT22;18176;49.502;11.754;2023-10-09T15:45:54;18.80;99.90
21184;DHT22;18176;49.502;11.754;2023-10-09T15:49:55;18.90;99.90
21184;DHT22;18176;49.502;11.754;2023-10-09T15:53:57;18.60;99.90
21184;DHT22;18176;49.502;11.754;2023-10-09T15:58:01;18.60;99.90
21184;DHT22;18176;49.502;11.754;2023-10-09T16:02:06;18.40;99.90
21184;DHT22;18176;49.502;11.754;2023-10-09T16:06:06;18.30;99.90
21184;DHT22;18176;49.502;11.754;2023-10-09T16:10:09;18.20;99.90
21184;DHT22;18176;49.502;11.754;2023-10-09T16:14:13;18.10;99.90
21184;DHT22;18176;49.502;11.754;2023-10-09T16:18:13;18.00;99.90
21184;DHT22;18176;49.502;11.754;2023-10-09T16:22:14;17.80;99.90
21184;DHT22;18176;49.502;11.754;2023-10-09T16:26:15;17.70;99.90
21184;DHT22;18176;49.502;11.754;2023-10-09T16:30:19;17.50;99.90
21184;DHT22;18176;49.502;11.754;2023-10-09T16:34:20;17.30;99.90
21184;DHT22;18176;49.502;11.754;2023-10-09T16:38:23;17.30;99.90
21184;DHT22;18176;49.502;11.754;2023-10-09T16:42:23;17.20;99.90
21184;DHT22;18176;49.502;11.754;2023-10-09T16:46:26;17.10;99.90
21184;DHT22;18176;49.502;11.754;2023-10-09T16:50:26;16.90;99.90
21184;DHT22;18176;49.502;11.754;2023-10-09T16:54:27;16.70;99.90
21184;DHT22;18176;49.502;11.754;2023-10-09T16:58:27;16.60;99.90
21184;DHT22;18176;49.502;11.754;2023-10-09T17:02:30;16.50;99.90
21184;DHT22;18176;49.502;11.754;2023-10-09T17:06:35;16.50;99.90
21184;DHT22;18176;49.502;11.754;2023-10-09T17:10:36;16.40;99.90
21184;DHT22;18176;49.502;11.754;2023-10-09T17:14:42;16.30;99.90
21184;DHT22;18176;49.502;11.754;2023-10-09T17:18:47;16.30;99.90
21184;DHT22;18176;49.502;11.754;2023-10-09T17:22:52;16.20;99.90
21184;DHT22;18176;49.502;11.754;2023-10-09T17:26:57;16.10;99.90
21184;DHT22;18176;49.502;11.754;2023-10-09T17:31:01;15.90;99.90
21184;DHT22;18176;49.502;11.754;2023-10-09T17:35:06;15.90;99.90
21184;DHT22;18176;49.502;11.754;2023-10-09T17:39:08;15.90;99.90
21184;DHT22;18176;49.502;11.754;2023-10-09T17:43:10;15.80;99.90
21184;DHT22;18176;49.502;11.754;2023-10-09T17:47:12;15.60;99.90
21184;DHT22;18176;49.502;11.754;2023-10-09T17:51:15;15.40;99.90
21184;DHT22;18176;49.502;11.754;2023-10-09T17:55:16;15.30;99.90
21184;DHT22;18176;49.502;11.754;2023-10-09T17:59:16;15.20;99.90
21184;DHT22;18176;49.502;11.754;2023-10-09T18:03:17;15.00;99.90
21184;DHT22;18176;49.502;11.754;2023-10-09T18:07:20;15.00;99.90
21184;DHT22;18176;49.502;11.754;2023-10-09T18:11:21;14.90;99.90
21184;DHT22;18176;49.502;11.754;2023-10-09T18:15:21;15.00;99.90
21184;DHT22;18176;49.502;11.754;2023-10-09T18:19:24;15.00;99.90
21184;DHT22;18176;49.502;11.754;2023-10-09T18:23:28;15.00;99.90
21184;DHT22;18176;49.502;11.754;2023-10-09T18:27:29;15.10;99.90
21184;DHT22;18176;49.502;11.754;2023-10-09T18:31:30;15.20;99.90
21184;DHT22;18176;49.502;11.754;2023-10-09T18:35:30;15.30;99.90
21184;DHT22;18176;49.502;11.754;2023-10-09T18:39:33;15.30;99.90
21184;DHT22;18176;49.502;11.754;2023-10-09T18:43:36;15.40;99.90
21184;DHT22;18176;49.502;11.754;2023-10-09T18:47:37;15.40;99.90
21184;DHT22;18176;49.502;11.754;2023-10-09T18:51:38;15.30;99.90
21184;DHT22;18176;49.502;11.754;2023-10-09T18:55:44;15.30;99.90
21184;DHT22;18176;49.502;11.754;2023-10-09T18:59:45;15.30;99.90
21184;DHT22;18176;49.502;11.754;2023-10-09T19:03:47;15.30;99.90
21184;DHT22;18176;49.502;11.754;2023-10-09T19:07:48;15.20;99.90
21184;DHT22;18176;49.502;11.754;2023-10-09T19:11:51;15.20;99.90
21184;DHT22;18176;49.502;11.754;2023-10-09T19:15:54;15.20;99.90
21184;DHT22;18176;49.502;11.754;2023-10-09T19:19:54;15.20;99.90
21184;DHT22;18176;49.502;11.754;2023-10-09T19:23:56;15.20;99.90
21184;DHT22;18176;49.502;11.754;2023-10-09T19:27:59;15.20;99.90
21184;DHT22;18176;49.502;11.754;2023-10-09T19:32:01;15.20;99.90
21184;DHT22;18176;49.502;11.754;2023-10-09T19:36:02;15.10;99.90
21184;DHT22;18176;49.502;11.754;2023-10-09T19:40:09;15.10;99.90
21184;DHT22;18176;49.502;11.754;2023-10-09T19:44:12;15.00;99.90
21184;DHT22;18176;49.502;11.754;2023-10-09T19:48:14;15.00;99.90
21184;DHT22;18176;49.502;11.754;2023-10-09T19:52:15;15.00;99.90
21184;DHT22;18176;49.502;11.754;2023-10-09T19:56:16;15.00;99.90
21184;DHT22;18176;49.502;11.754;2023-10-09T20:00:24;15.00;99.90
21184;DHT22;18176;49.502;11.754;2023-10-09T20:04:28;15.00;99.90
21184;DHT22;18176;49.502;11.754;2023-10-09T20:08:32;15.10;99.90
21184;DHT22;18176;49.502;11.754;2023-10-09T20:12:33;15.10;99.90
21184;DHT22;18176;49.502;11.754;2023-10-09T20:16:36;15.10;99.90
21184;DHT22;18176;49.502;11.754;2023-10-09T20:20:37;15.10;99.90
21184;DHT22;18176;49.502;11.754;2023-10-09T20:24:38;15.00;99.90
21184;DHT22;18176;49.502;11.754;2023-10-09T20:28:38;15.00;99.90
21184;DHT22;18176;49.502;11.754;2023-10-09T20:32:42;14.90;99.90
21184;DHT22;18176;49.502;11.754;2023-10-09T20:36:43;14.90;99.90
21184;DHT22;18176;49.502;11.754;2023-10-09T20:40:45;14.90;99.90
21184;DHT22;18176;49.502;11.754;2023-10-09T20:44:45;14.90;99.90
21184;DHT22;18176;49.502;11.754;2023-10-09T20:48:49;15.00;99.90
21184;DHT22;18176;49.502;11.754;2023-10-09T20:52:49;15.00;99.90
21184;DHT22;18176;49.502;11.754;2023-10-09T20:56:49;14.90;99.90
21184;DHT22;18176;49.502;11.754;2023-10-09T21:00:50;14.90;99.90
21184;DHT22;18176;49.502;11.754;2023-10-09T21:04:55;14.90;99.90
21184;DHT22;18176;49.502;11.754;2023-10-09T21:08:55;14.80;99.90
21184;DHT22;18176;49.502;11.754;2023-10-09T21:12:55;14.80;99.90
21184;DHT22;18176;49.502;11.754;2023-10-09T21:16:56;14.70;99.90
21184;DHT22;18176;49.502;11.754;2023-10-09T21:20:59;14.70;99.90
21184;DHT22;18176;49.502;11.754;2023-10-09T21:24:59;14.60;99.90
21184;DHT22;18176;49.502;11.754;2023-10-09T21:29:00;14.60;99.90
21184;DHT22;18176;49.502;11.754;2023-10-09T21:33:01;14.60;99.90
21184;DHT22;18176;49.502;11.754;2023-10-09T21:37:04;14.50;99.90
21184;DHT22;18176;49.502;11.754;2023-10-09T21:41:10;14.50;99.90
21184;DHT22;18176;49.502;11.754;2023-10-09T21:45:14;14.40;99.90
21184;DHT22;18176;49.502;11.754;2023-10-09T21:49:15;14.30;99.90
21184;DHT22;18176;49.502;11.754;2023-10-09T21:53:18;14.30;99.90
21184;DHT22;18176;49.502;11.754;2023-10-09T21:57:19;14.30;99.90
21184;DHT22;18176;49.502;11.754;2023-10-09T22:01:20;14.30;99.90
21184;DHT22;18176;49.502;11.754;2023-10-09T22:05:25;14.30;99.90
21184;DHT22;18176;49.502;11.754;2023-10-09T22:09:30;14.30;99.90
21184;DHT22;18176;49.502;11.754;2023-10-09T22:13:31;14.30;99.90
21184;DHT22;18176;49.502;11.754;2023-10-09T22:17:31;14.30;99.90
21184;DHT22;18176;49.502;11.754;2023-10-09T22:21:32;14.20;99.90
21184;DHT22;18176;49.502;11.754;2023-10-09T22:25:35;14.10;99.90
21184;DHT22;18176;49.502;11.754;2023-10-09T22:29:36;14.00;99.90
21184;DHT22;18176;49.502;11.754;2023-10-09T22:33:38;14.00;99.90
21184;DHT22;18176;49.502;11.754;2023-10-09T22:37:46;14.00;99.90
21184;DHT22;18176;49.502;11.754;2023-10-09T22:41:54;14.00;99.90
21184;DHT22;18176;49.502;11.754;2023-10-09T22:45:54;13.90;99.90
21184;DHT22;18176;49.502;11.754;2023-10-09T22:49:55;13.80;99.90
21184;DHT22;18176;49.502;11.754;2023-10-09T22:54:15;13.80;99.90
21184;DHT22;18176;49.502;11.754;2023-10-09T22:58:23;13.80;99.90
21184;DHT22;18176;49.502;11.754;2023-10-09T23:02:25;13.80;99.90
21184;DHT22;18176;49.502;11.754;2023-10-09T23:06:38;13.80;99.90
21184;DHT22;18176;49.502;11.754;2023-10-09T23:10:41;13.90;99.90
21184;DHT22;18176;49.502;11.754;2023-10-09T23:14:51;13.90;99.90
21184;DHT22;18176;49.502;11.754;2023-10-09T23:18:53;13.90;99.90
21184;DHT22;18176;49.502;11.754;2023-10-09T23:23:29;13.90;99.90
21184;DHT22;18176;49.502;11.754;2023-10-09T23:27:33;13.80;99.90
21184;DHT22;18176;49.502;11.754;2023-10-09T23:31:47;13.80;99.90
21184;DHT22;18176;49.502;11.754;2023-10-09T23:35:55;13.70;99.90
21184;DHT22;18176;49.502;11.754;2023-10-09T23:40:01;13.60;99.90
21184;DHT22;18176;49.502;11.754;2023-10-09T23:44:09;13.60;99.90
21184;DHT22;18176;49.502;11.754;2023-10-09T23:48:20;13.50;99.90
21184;DHT22;18176;49.502;11.754;2023-10-09T23:52:24;13.50;99.90
21184;DHT22;18176;49.502;11.754;2023-10-09T23:56:25;13.40;99.90
